createdAt,value
2019-03-27T00:00:38.929Z,9.20
2019-03-27T00:03:10.643Z,6.53
2019-03-27T00:05:42.368Z,9.77
2019-03-27T00:08:14.051Z,11.83
2019-03-27T00:10:45.780Z,10.70
2019-03-27T00:13:17.489Z,6.83
2019-03-27T00:15:49.292Z,13.20
2019-03-27T00:18:20.999Z,7.30
2019-03-27T00:20:52.755Z,7.37
2019-03-27T00:23:24.501Z,10.30
2019-03-27T00:25:56.255Z,15.67
2019-03-27T00:28:28.105Z,10.17
2019-03-27T00:30:59.898Z,6.30
2019-03-27T00:33:31.570Z,8.27
2019-03-27T00:36:03.348Z,11.70
2019-03-27T00:38:35.000Z,5.37
2019-03-27T00:41:06.787Z,16.30
2019-03-27T00:43:38.504Z,12.83
2019-03-27T00:46:10.231Z,9.67
2019-03-27T00:48:42.125Z,13.00
2019-03-27T00:51:13.838Z,12.43
2019-03-27T00:53:45.587Z,7.50
2019-03-27T00:56:17.329Z,8.10
2019-03-27T00:58:49.069Z,8.20
2019-03-27T01:01:20.873Z,15.37
2019-03-27T01:03:52.607Z,7.50
2019-03-27T01:06:24.305Z,13.17
2019-03-27T01:08:56.032Z,8.67
2019-03-27T01:11:27.720Z,9.90
2019-03-27T01:13:59.485Z,9.83
2019-03-27T01:16:31.611Z,9.30
2019-03-27T01:19:03.417Z,10.23
2019-03-27T01:21:35.127Z,8.07
2019-03-27T01:24:06.863Z,9.20
2019-03-27T01:26:38.543Z,6.90
2019-03-27T01:29:10.401Z,10.27
2019-03-27T01:31:42.238Z,8.90
2019-03-27T01:34:14.114Z,10.07
2019-03-27T01:36:45.813Z,4.73
2019-03-27T01:39:17.557Z,8.60
2019-03-27T01:41:49.289Z,7.80
2019-03-27T01:44:21.150Z,12.37
2019-03-27T01:46:53.050Z,10.00
2019-03-27T01:49:24.764Z,10.10
2019-03-27T01:51:56.532Z,7.43
2019-03-27T01:54:28.267Z,7.30
2019-03-27T01:56:59.923Z,10.60
2019-03-27T01:59:31.744Z,5.13
2019-03-27T02:02:03.524Z,10.60
2019-03-27T02:04:35.220Z,7.97
2019-03-27T02:07:06.968Z,8.37
2019-03-27T02:09:38.665Z,9.03
2019-03-27T02:12:10.385Z,9.70
2019-03-27T02:14:42.170Z,12.97
2019-03-27T02:17:13.854Z,10.43
2019-03-27T02:19:45.610Z,11.63
2019-03-27T02:22:17.282Z,8.60
2019-03-27T02:24:49.063Z,12.10
2019-03-27T02:27:20.800Z,10.57
2019-03-27T02:29:52.604Z,9.77
2019-03-27T02:32:25.353Z,10.47
2019-03-27T02:34:57.107Z,12.87
2019-03-27T02:37:28.801Z,9.37
2019-03-27T02:40:00.506Z,16.40
2019-03-27T02:42:32.179Z,7.83
2019-03-27T02:45:03.911Z,7.90
2019-03-27T02:47:35.588Z,8.03
2019-03-27T02:50:07.548Z,7.47
2019-03-27T02:52:39.248Z,11.37
2019-03-27T02:55:10.966Z,11.43
2019-03-27T02:57:42.741Z,9.90
2019-03-27T03:00:14.803Z,12.77
2019-03-27T03:02:46.531Z,13.43
2019-03-27T03:05:18.247Z,8.63
2019-03-27T03:07:50.026Z,12.00
2019-03-27T03:10:21.756Z,7.70
2019-03-27T03:12:53.480Z,12.70
2019-03-27T03:15:25.889Z,6.27
2019-03-27T03:17:57.640Z,7.47
2019-03-27T03:20:29.363Z,10.60
2019-03-27T03:23:01.219Z,13.97
2019-03-27T03:25:32.982Z,13.77
2019-03-27T03:28:04.678Z,9.77
2019-03-27T03:30:36.398Z,13.47
2019-03-27T03:33:08.184Z,14.80
2019-03-27T03:35:39.908Z,10.97
2019-03-27T03:38:11.662Z,11.43
2019-03-27T03:40:43.359Z,12.47
2019-03-27T03:43:15.052Z,8.10
2019-03-27T03:45:46.909Z,13.27
2019-03-27T03:48:18.649Z,9.00
2019-03-27T03:50:50.703Z,12.60
2019-03-27T03:53:22.531Z,9.80
2019-03-27T03:55:54.229Z,17.13
2019-03-27T03:58:25.925Z,12.73
2019-03-27T04:00:57.957Z,14.90
2019-03-27T04:03:31.507Z,12.07
2019-03-27T04:06:03.164Z,8.93
2019-03-27T04:08:34.893Z,14.30
2019-03-27T04:11:06.593Z,9.17
2019-03-27T04:13:38.278Z,11.03
2019-03-27T04:16:09.954Z,13.17
2019-03-27T04:18:41.928Z,9.10
2019-03-27T04:21:13.652Z,14.27
2019-03-27T04:23:45.390Z,11.20
2019-03-27T04:26:17.255Z,9.03
2019-03-27T04:28:49.933Z,9.70
2019-03-27T04:31:21.773Z,9.67
2019-03-27T04:33:53.548Z,11.53
2019-03-27T04:36:25.170Z,9.63
2019-03-27T04:38:56.862Z,11.53
2019-03-27T04:41:28.516Z,12.53
2019-03-27T04:44:00.268Z,11.60
2019-03-27T04:46:31.995Z,10.93
2019-03-27T04:49:07.711Z,13.00
2019-03-27T04:51:37.278Z,10.23
2019-03-27T04:54:09.006Z,9.60
2019-03-27T04:56:40.743Z,6.90
2019-03-27T04:59:12.458Z,10.33
2019-03-27T05:01:44.271Z,10.87
2019-03-27T05:04:16.080Z,9.13
2019-03-27T05:06:47.826Z,13.33
2019-03-27T05:09:19.570Z,13.43
2019-03-27T05:11:51.306Z,13.13
2019-03-27T05:14:23.061Z,14.17
2019-03-27T05:16:54.765Z,9.17
2019-03-27T05:19:26.592Z,14.33
2019-03-27T05:21:58.334Z,12.17
2019-03-27T05:24:30.029Z,13.23
2019-03-27T05:27:01.812Z,18.97
2019-03-27T05:29:33.538Z,9.83
2019-03-27T05:32:05.330Z,13.27
2019-03-27T05:34:37.051Z,16.40
2019-03-27T05:37:08.757Z,15.50
2019-03-27T05:39:40.590Z,16.20
2019-03-27T05:42:12.306Z,14.27
2019-03-27T05:44:44.988Z,14.93
2019-03-27T05:47:16.859Z,17.70
2019-03-27T05:49:48.625Z,15.20
2019-03-27T05:52:20.379Z,19.33
2019-03-27T05:54:52.252Z,18.50
2019-03-27T05:57:23.893Z,19.90
2019-03-27T05:59:55.644Z,17.73
2019-03-27T06:02:27.323Z,15.93
2019-03-27T06:04:59.074Z,15.53
2019-03-27T06:07:30.751Z,15.17
2019-03-27T06:10:02.491Z,16.33
2019-03-27T06:12:34.337Z,18.07
2019-03-27T06:15:06.156Z,16.17
2019-03-27T06:17:37.918Z,16.83
2019-03-27T06:20:10.031Z,14.73
2019-03-27T06:22:41.819Z,18.30
2019-03-27T06:25:13.559Z,20.03
2019-03-27T06:27:45.242Z,13.67
2019-03-27T06:30:17.170Z,14.43
2019-03-27T06:32:48.926Z,13.33
2019-03-27T06:35:20.672Z,14.03
2019-03-27T06:37:52.495Z,13.50
2019-03-27T06:40:24.221Z,18.40
2019-03-27T06:42:55.927Z,15.10
2019-03-27T06:45:27.659Z,12.07
2019-03-27T06:47:59.372Z,13.87
2019-03-27T06:50:31.072Z,14.63
2019-03-27T06:53:02.843Z,13.67
2019-03-27T06:55:34.764Z,17.70
2019-03-27T06:58:06.516Z,14.73
2019-03-27T07:00:38.564Z,15.03
2019-03-27T07:03:10.299Z,20.07
2019-03-27T07:05:42.120Z,17.37
2019-03-27T07:08:13.848Z,15.03
2019-03-27T07:10:45.600Z,15.13
2019-03-27T07:13:17.332Z,14.57
2019-03-27T07:15:49.180Z,15.80
2019-03-27T07:18:20.886Z,16.23
2019-03-27T07:20:52.595Z,17.43
2019-03-27T07:23:24.351Z,16.23
2019-03-27T07:25:56.065Z,18.47
2019-03-27T07:28:27.871Z,18.67
2019-03-27T07:31:00.020Z,20.17
2019-03-27T07:33:31.914Z,13.63
2019-03-27T07:36:03.679Z,20.93
2019-03-27T07:38:35.424Z,19.47
2019-03-27T07:41:07.188Z,19.70
2019-03-27T07:43:39.130Z,16.87
2019-03-27T07:46:10.879Z,20.50
2019-03-27T07:48:53.350Z,21.90
2019-03-27T07:51:16.209Z,23.73
2019-03-27T07:53:47.969Z,17.30
2019-03-27T07:56:19.725Z,20.37
2019-03-27T07:58:51.552Z,13.77
2019-03-27T08:01:23.258Z,15.93
2019-03-27T08:03:55.227Z,18.03
2019-03-27T08:06:27.018Z,15.57
2019-03-27T08:08:58.833Z,18.67
2019-03-27T08:11:31.770Z,20.90
2019-03-27T08:14:03.666Z,18.67
2019-03-27T08:16:35.552Z,21.33
2019-03-27T08:19:08.146Z,18.10
2019-03-27T08:21:40.111Z,18.63
2019-03-27T08:24:11.947Z,21.50
2019-03-27T08:26:43.676Z,17.00
2019-03-27T08:29:15.561Z,17.07
2019-03-27T08:31:47.423Z,16.60
2019-03-27T08:34:19.303Z,17.97
2019-03-27T08:36:51.114Z,19.67
2019-03-27T08:39:22.872Z,17.73
2019-03-27T08:41:54.782Z,18.20
2019-03-27T08:44:26.529Z,20.03
2019-03-27T08:46:58.351Z,18.37
2019-03-27T08:49:30.047Z,21.73
2019-03-27T08:52:01.787Z,25.23
2019-03-27T08:54:33.683Z,19.10
2019-03-27T08:57:06.588Z,23.07
2019-03-27T08:59:38.402Z,16.20
2019-03-27T09:02:10.157Z,20.30
2019-03-27T09:04:41.901Z,21.67
2019-03-27T09:07:15.685Z,20.93
2019-03-27T09:09:47.444Z,16.40
2019-03-27T09:12:19.218Z,16.23
2019-03-27T09:14:50.922Z,18.07
2019-03-27T09:17:22.650Z,19.67
2019-03-27T09:19:54.532Z,17.47
2019-03-27T09:22:26.287Z,18.20
2019-03-27T09:24:58.248Z,19.93
2019-03-27T09:27:30.005Z,17.80
2019-03-27T09:30:01.731Z,14.03
2019-03-27T09:32:33.500Z,16.67
2019-03-27T09:35:06.564Z,18.70
2019-03-27T09:37:38.304Z,15.77
2019-03-27T09:40:10.230Z,19.67
2019-03-27T09:42:41.952Z,13.22
2019-03-27T09:45:14.157Z,18.17
2019-03-27T09:47:45.908Z,16.27
2019-03-27T09:50:17.679Z,17.00
2019-03-27T09:52:49.379Z,18.10
2019-03-27T09:55:21.236Z,14.30
2019-03-27T09:57:52.995Z,15.10
2019-03-27T10:00:54.940Z,18.90
2019-03-27T10:03:26.706Z,17.63
2019-03-27T10:05:58.430Z,17.60
2019-03-27T10:08:30.180Z,18.23
2019-03-27T10:11:01.980Z,16.67
2019-03-27T10:13:33.889Z,22.77
2019-03-27T10:16:06.029Z,12.95
2019-03-27T10:18:38.867Z,15.93
2019-03-27T10:21:10.577Z,12.73
2019-03-27T10:23:42.357Z,15.48
2019-03-27T10:26:14.090Z,17.47
2019-03-27T10:28:47.054Z,14.95
2019-03-27T10:31:18.833Z,15.90
2019-03-27T10:33:50.575Z,15.93
2019-03-27T10:36:22.348Z,17.67
2019-03-27T10:38:54.216Z,19.12
2019-03-27T10:41:25.963Z,18.50
2019-03-27T10:43:57.832Z,15.40
2019-03-27T10:46:29.590Z,14.87
2019-03-27T10:49:01.329Z,16.10
2019-03-27T10:51:33.185Z,15.65
2019-03-27T10:54:05.055Z,16.57
2019-03-27T10:56:36.817Z,17.87
2019-03-27T10:59:08.527Z,13.97
2019-03-27T11:01:40.381Z,17.60
2019-03-27T11:04:12.102Z,22.73
2019-03-27T11:06:43.854Z,19.80
2019-03-27T11:09:15.588Z,19.50
2019-03-27T11:11:47.297Z,18.48
2019-03-27T11:14:19.070Z,19.25
2019-03-27T11:16:50.823Z,16.73
2019-03-27T11:19:25.355Z,18.12
2019-03-27T11:21:57.107Z,13.93
2019-03-27T11:24:28.920Z,10.53
2019-03-27T11:27:00.885Z,11.10
2019-03-27T11:29:32.600Z,9.60
2019-03-27T11:32:10.215Z,13.90
2019-03-27T11:34:44.045Z,9.78
2019-03-27T11:37:15.792Z,11.30
2019-03-27T11:39:47.604Z,13.60
2019-03-27T11:42:19.338Z,9.53
2019-03-27T11:44:51.137Z,12.20
2019-03-27T11:47:22.865Z,10.90
2019-03-27T11:49:54.709Z,9.30
2019-03-27T11:52:29.518Z,10.85
2019-03-27T11:55:00.352Z,13.07
2019-03-27T11:57:32.078Z,11.38
2019-03-27T12:00:03.851Z,12.15
2019-03-27T12:02:37.228Z,12.47
2019-03-27T12:05:09.044Z,11.50
2019-03-27T12:07:40.795Z,16.80
2019-03-27T12:10:12.600Z,14.17
2019-03-27T12:12:48.382Z,15.88
2019-03-27T12:15:36.386Z,15.72
2019-03-27T12:18:09.001Z,12.40
2019-03-27T12:20:41.036Z,14.40
2019-03-27T12:23:13.108Z,13.43
2019-03-27T12:25:44.836Z,15.13
2019-03-27T12:28:16.506Z,13.13
2019-03-27T12:30:48.231Z,10.45
2019-03-27T12:33:20.498Z,14.40
2019-03-27T12:35:52.344Z,7.37
2019-03-27T12:38:25.188Z,8.13
2019-03-27T12:40:56.983Z,6.50
2019-03-27T12:43:29.765Z,8.30
2019-03-27T12:46:01.544Z,8.63
2019-03-27T12:48:33.241Z,7.45
2019-03-27T12:51:12.601Z,6.92
2019-03-27T12:53:38.451Z,5.50
2019-03-27T12:56:10.184Z,6.47
2019-03-27T12:58:41.868Z,7.20
2019-03-27T13:01:13.588Z,8.75
2019-03-27T13:03:45.251Z,8.33
2019-03-27T13:06:17.029Z,5.55
2019-03-27T13:08:49.563Z,5.45
2019-03-27T13:11:21.462Z,4.72
2019-03-27T13:13:53.183Z,5.12
2019-03-27T13:16:24.989Z,5.10
2019-03-27T13:18:56.703Z,4.33
2019-03-27T13:21:29.389Z,6.30
2019-03-27T13:24:02.182Z,3.72
2019-03-27T13:26:33.978Z,7.17
2019-03-27T13:29:05.771Z,3.98
2019-03-27T13:31:37.542Z,4.67
2019-03-27T13:34:09.282Z,6.22
2019-03-27T13:36:45.695Z,6.08
2019-03-27T13:39:17.526Z,5.75
2019-03-27T13:41:49.297Z,4.60
2019-03-27T13:44:21.015Z,5.28
2019-03-27T13:46:52.887Z,5.87
2019-03-27T13:49:24.559Z,5.65
2019-03-27T13:51:56.295Z,6.55
2019-03-27T13:54:28.055Z,5.25
2019-03-27T13:56:59.783Z,8.25
2019-03-27T13:59:31.600Z,8.58
2019-03-27T14:02:03.458Z,6.40
2019-03-27T14:04:35.212Z,5.85
2019-03-27T14:07:07.028Z,6.47
2019-03-27T14:09:38.833Z,6.75
2019-03-27T14:12:10.572Z,9.70
2019-03-27T14:14:50.151Z,9.58
2019-03-27T14:17:15.775Z,7.90
2019-03-27T14:19:48.585Z,8.53
2019-03-27T14:22:20.340Z,6.55
2019-03-27T14:24:52.115Z,6.47
2019-03-27T14:27:24.814Z,5.55
2019-03-27T14:29:56.599Z,5.67
2019-03-27T14:32:28.715Z,6.67
2019-03-27T14:35:00.404Z,7.87
2019-03-27T14:37:32.461Z,7.42
2019-03-27T14:40:05.245Z,7.75
2019-03-27T14:42:37.104Z,8.28
2019-03-27T14:45:10.112Z,9.88
2019-03-27T14:47:41.940Z,6.47
2019-03-27T14:50:13.788Z,6.35
2019-03-27T14:52:45.650Z,6.95
2019-03-27T14:55:17.351Z,7.80
2019-03-27T14:57:49.122Z,6.22
2019-03-27T15:00:20.859Z,9.18
2019-03-27T15:02:52.645Z,7.83
2019-03-27T15:05:24.513Z,6.25
2019-03-27T15:07:56.233Z,10.00
2019-03-27T15:10:28.100Z,5.65
2019-03-27T15:13:00.271Z,7.58
2019-03-27T15:15:32.040Z,8.53
2019-03-27T15:18:03.946Z,5.42
2019-03-27T15:20:35.864Z,7.50
2019-03-27T15:23:07.703Z,6.47
2019-03-27T15:25:39.535Z,6.78
2019-03-27T15:28:11.232Z,6.15
2019-03-27T15:30:42.992Z,8.65
2019-03-27T15:33:14.697Z,6.25
2019-03-27T15:35:46.444Z,9.80
2019-03-27T15:38:18.395Z,6.53
2019-03-27T15:40:50.180Z,8.03
2019-03-27T15:43:21.916Z,7.28
2019-03-27T15:45:53.626Z,5.83
2019-03-27T15:48:25.416Z,10.82
2019-03-27T15:50:59.022Z,7.20
2019-03-27T15:53:30.598Z,7.50
2019-03-27T15:56:02.351Z,9.85
2019-03-27T15:58:34.145Z,10.50
2019-03-27T16:01:07.395Z,5.58
2019-03-27T16:03:39.233Z,5.72
2019-03-27T16:06:11.062Z,6.47
2019-03-27T16:08:42.837Z,7.12
2019-03-27T16:11:14.565Z,5.75
2019-03-27T16:13:46.307Z,6.58
2019-03-27T16:16:18.087Z,6.50
2019-03-27T16:18:50.000Z,6.97
2019-03-27T16:21:21.736Z,6.65
2019-03-27T16:24:05.805Z,6.90
2019-03-27T16:26:27.054Z,8.83
2019-03-27T16:28:58.820Z,6.53
2019-03-27T16:31:30.635Z,6.30
2019-03-27T16:34:02.368Z,5.97
2019-03-27T16:36:34.134Z,12.18
2019-03-27T16:39:07.721Z,6.97
2019-03-27T16:41:39.517Z,9.65
2019-03-27T16:44:11.259Z,7.92
2019-03-27T16:46:42.945Z,7.95
2019-03-27T16:49:14.792Z,7.25
2019-03-27T16:51:46.605Z,8.20
2019-03-27T16:54:18.472Z,7.30
2019-03-27T16:56:50.203Z,10.68
2019-03-27T16:59:22.104Z,7.87
2019-03-27T17:01:53.866Z,9.23
2019-03-27T17:04:27.519Z,8.98
2019-03-27T17:06:59.139Z,7.25
2019-03-27T17:09:30.875Z,10.32
2019-03-27T17:12:02.743Z,8.98
2019-03-27T17:14:35.484Z,7.08
2019-03-27T17:17:07.232Z,10.35
2019-03-27T17:19:39.053Z,5.08
2019-03-27T17:22:19.271Z,8.40
2019-03-27T17:24:44.253Z,6.20
2019-03-27T17:27:16.009Z,9.23
2019-03-27T17:29:47.733Z,6.92
2019-03-27T17:32:19.550Z,6.12
2019-03-27T17:34:52.007Z,7.92
2019-03-27T17:37:23.930Z,8.83
2019-03-27T17:39:55.696Z,7.20
2019-03-27T17:42:27.403Z,7.65
2019-03-27T17:44:59.319Z,5.97
2019-03-27T17:47:31.022Z,7.20
2019-03-27T17:50:03.050Z,8.30
2019-03-27T17:52:38.243Z,7.20
2019-03-27T17:55:10.024Z,8.65
2019-03-27T17:57:45.969Z,8.73
2019-03-27T18:00:23.444Z,9.00
2019-03-27T18:02:55.183Z,6.65
2019-03-27T18:05:26.979Z,6.77
2019-03-27T18:07:58.783Z,10.13
2019-03-27T18:10:31.463Z,6.33
2019-03-27T18:13:03.975Z,8.55
2019-03-27T18:15:37.779Z,5.75
2019-03-27T18:18:10.395Z,8.03
2019-03-27T18:20:44.176Z,6.83
2019-03-27T18:23:16.083Z,8.05
2019-03-27T18:25:47.997Z,10.50
2019-03-27T18:28:43.488Z,8.30
2019-03-27T18:31:18.589Z,5.90
2019-03-27T18:33:50.318Z,9.18
2019-03-27T18:36:23.447Z,7.12
2019-03-27T18:38:55.435Z,10.48
2019-03-27T18:41:27.193Z,8.13
2019-03-27T18:43:58.905Z,9.05
2019-03-27T18:46:30.603Z,7.85
2019-03-27T18:49:02.472Z,6.67
2019-03-27T18:51:34.180Z,6.90
2019-03-27T18:54:06.083Z,11.57
2019-03-27T18:56:37.872Z,6.62
2019-03-27T18:59:09.699Z,6.42
2019-03-27T19:01:41.545Z,8.28
2019-03-27T19:04:13.355Z,6.95
2019-03-27T19:06:45.072Z,9.48
2019-03-27T19:09:16.807Z,8.33
2019-03-27T19:11:48.539Z,9.57
2019-03-27T19:14:20.271Z,11.70
2019-03-27T19:16:52.086Z,10.13
2019-03-27T19:19:23.881Z,11.63
2019-03-27T19:21:55.618Z,23.25
2019-03-27T19:24:27.376Z,15.00
2019-03-27T19:26:59.129Z,9.57
2019-03-27T19:29:30.873Z,12.50
2019-03-27T19:32:02.694Z,10.15
2019-03-27T19:34:34.541Z,10.88
2019-03-27T19:37:06.387Z,9.83
2019-03-27T19:39:38.142Z,8.88
2019-03-27T19:42:09.978Z,11.77
2019-03-27T19:44:41.871Z,12.33
2019-03-27T19:47:13.753Z,11.35
2019-03-27T19:49:45.567Z,10.93
2019-03-27T19:52:17.357Z,11.25
2019-03-27T19:54:51.730Z,8.58
2019-03-27T19:57:25.450Z,12.73
2019-03-27T19:59:57.804Z,11.20
2019-03-27T20:02:29.629Z,10.82
2019-03-27T20:05:01.718Z,10.23
2019-03-27T20:07:36.125Z,11.88
2019-03-27T20:10:08.040Z,10.32
2019-03-27T20:12:42.957Z,17.92
2019-03-27T20:15:15.907Z,10.40
2019-03-27T20:17:48.443Z,12.55
2019-03-27T20:20:20.375Z,15.08
2019-03-27T20:22:52.660Z,8.93
2019-03-27T20:25:24.508Z,10.85
2019-03-27T20:27:56.417Z,9.77
2019-03-27T20:30:28.300Z,9.45
2019-03-27T20:33:00.205Z,11.20
2019-03-27T20:35:32.098Z,13.43
2019-03-27T20:38:03.925Z,12.00
2019-03-27T20:40:36.286Z,11.53
2019-03-27T20:43:09.271Z,11.30
2019-03-27T20:45:41.231Z,9.18
2019-03-27T20:48:14.131Z,11.90
2019-03-27T20:50:46.123Z,13.05
2019-03-27T20:53:18.121Z,13.32
2019-03-27T20:55:49.954Z,13.68
2019-03-27T20:58:22.002Z,10.48
2019-03-27T21:00:53.926Z,11.47
2019-03-27T21:03:25.968Z,11.68
2019-03-27T21:05:57.799Z,16.27
2019-03-27T21:08:29.712Z,14.40
2019-03-27T21:11:01.816Z,14.85
2019-03-27T21:13:33.690Z,15.30
2019-03-27T21:16:05.595Z,14.93
2019-03-27T21:18:37.560Z,12.07
2019-03-27T21:21:09.752Z,11.80
2019-03-27T21:23:41.637Z,12.07
2019-03-27T21:26:13.668Z,11.90
2019-03-27T21:28:45.531Z,13.53
2019-03-27T21:31:17.453Z,12.20
2019-03-27T21:33:49.481Z,12.10
2019-03-27T21:36:21.550Z,12.50
2019-03-27T21:38:53.772Z,11.43
2019-03-27T21:41:25.861Z,15.33
2019-03-27T21:43:57.884Z,12.17
2019-03-27T21:46:29.914Z,12.60
2019-03-27T21:49:01.906Z,12.07
2019-03-27T21:51:33.938Z,17.02
2019-03-27T21:54:06.421Z,14.93
2019-03-27T21:56:38.334Z,13.22
2019-03-27T21:59:10.225Z,13.23
2019-03-27T22:01:42.194Z,14.63
2019-03-27T22:04:14.315Z,12.68
2019-03-27T22:06:46.398Z,17.37
2019-03-27T22:09:19.079Z,15.53
2019-03-27T22:11:51.470Z,13.75
2019-03-27T22:14:23.417Z,12.73
2019-03-27T22:16:55.262Z,12.13
2019-03-27T22:19:27.032Z,15.00
2019-03-27T22:21:58.839Z,13.13
2019-03-27T22:24:30.670Z,12.28
2019-03-27T22:27:02.579Z,12.95
2019-03-27T22:29:34.358Z,12.60
2019-03-27T22:32:06.200Z,12.67
2019-03-27T22:34:38.164Z,14.18
2019-03-27T22:37:09.971Z,14.17
2019-03-27T22:39:41.897Z,13.98
2019-03-27T22:42:13.963Z,13.77
2019-03-27T22:44:45.712Z,15.90
2019-03-27T22:47:17.507Z,15.80
2019-03-27T22:49:49.344Z,14.17
2019-03-27T22:52:21.290Z,16.52
2019-03-27T22:54:53.221Z,12.82
2019-03-27T22:57:25.002Z,12.13
2019-03-27T22:59:56.804Z,15.13
2019-03-27T23:02:28.665Z,12.07
2019-03-27T23:05:01.599Z,16.43
2019-03-27T23:07:33.493Z,18.97
2019-03-27T23:10:05.584Z,14.47
2019-03-27T23:12:38.706Z,17.37
2019-03-27T23:15:10.633Z,15.10
2019-03-27T23:17:42.514Z,13.60
2019-03-27T23:20:14.293Z,13.10
2019-03-27T23:22:46.167Z,14.53
2019-03-27T23:25:17.918Z,15.13
2019-03-27T23:27:49.847Z,15.20
2019-03-27T23:30:21.734Z,18.87
2019-03-27T23:32:53.540Z,15.10
2019-03-27T23:35:25.390Z,12.93
2019-03-27T23:37:57.137Z,15.00
2019-03-27T23:40:29.020Z,17.17
2019-03-27T23:43:00.984Z,15.33
2019-03-27T23:45:32.764Z,14.80
2019-03-27T23:48:04.654Z,15.80
2019-03-27T23:50:36.379Z,16.73
2019-03-27T23:53:08.195Z,13.45
2019-03-27T23:55:40.105Z,14.40
2019-03-27T23:58:11.879Z,15.85
